Terminal Aerodrome Forecast
Issued by NWS

Home | Current Version | Previous Version | Text Only | Print | Product List | Glossary On
Versions: 1 2 3 4 5 6 7 8 9 10 11 12 13 14 15 16 17 18 19 20 21 22 23 24
000
FTUS45 KREV 171738
TAFRNO
TAF
KRNO 171738Z 1718/1818 VRB03KT P6SM FEW250
     FM172100 25007KT P6SM SCT200
     FM180100 26012G20KT P6SM SCT200
     FM181200 22018G30KT P6SM SCT100=

USA.gov is the U.S. government's official web portal to all federal, state and local government web resources and services.